Labrea, Brazil
Current Conditions -  °F | °C
As of 1:00 AM on Thursday 27 Nov 2014 (Local Time) from SBPV Reporting Station
Broken Clouds Broken Clouds  
Wind Chill: 73°   Ceiling: 800
Heat Index: 73°   Visibility: 6mi
Dew Point: 72°   Wind: 3mph
Humidity: 94%   Direction: 320°NW
Pressure: 29.83"   Gusts: NA
Location:  7.26°S, 64.81°W
Report Text: SBPV 270500Z 32003KT 9999 FEW005 BKN008 23/22 Q1010
Loading
Personal Weather Stations






























Interactive Weather Map New forecast layout! Learn more

10-Day Weather Forecast

Advertisements
Track Severe Weather on mobile